createdAt,value
2022-08-29T00:03:25.754Z,0.64
2022-08-29T00:08:32.760Z,0.56
2022-08-29T00:13:39.163Z,0.64
2022-08-29T00:18:45.918Z,0.76
2022-08-29T00:23:52.315Z,0.64
2022-08-29T00:28:59.019Z,0.76
2022-08-29T00:34:05.033Z,0.61
2022-08-29T00:39:11.787Z,0.67
2022-08-29T00:44:18.176Z,0.55
2022-08-29T00:49:25.607Z,0.52
2022-08-29T00:54:32.005Z,0.84
2022-08-29T00:59:39.452Z,0.66
2022-08-29T01:04:45.830Z,0.76
2022-08-29T01:09:52.940Z,0.76
2022-08-29T01:14:59.322Z,0.66
2022-08-29T01:20:06.046Z,0.64
2022-08-29T01:25:12.497Z,0.74
2022-08-29T01:30:19.271Z,0.69
2022-08-29T01:35:25.688Z,0.67
2022-08-29T01:40:32.842Z,0.63
2022-08-29T01:45:39.142Z,0.75
2022-08-29T01:50:45.777Z,0.78
2022-08-29T01:55:52.152Z,0.72
2022-08-29T02:00:58.892Z,0.71
2022-08-29T02:06:05.258Z,0.70
2022-08-29T02:11:12.480Z,0.85
2022-08-29T02:16:18.911Z,0.73
2022-08-29T02:21:25.910Z,0.78
2022-08-29T02:26:32.321Z,0.74
2022-08-29T02:31:39.251Z,0.70
2022-08-29T02:36:46.478Z,0.54
2022-08-29T02:41:52.487Z,0.60
2022-08-29T02:46:58.958Z,0.71
2022-08-29T02:52:05.614Z,0.71
2022-08-29T02:57:12.103Z,0.62
2022-08-29T03:02:18.872Z,0.61
2022-08-29T03:07:25.228Z,0.92
2022-08-29T03:12:32.686Z,0.68
2022-08-29T03:17:39.093Z,0.77
2022-08-29T03:22:45.891Z,1.01
2022-08-29T03:27:52.351Z,0.67
2022-08-29T03:32:59.031Z,0.70
2022-08-29T03:38:05.559Z,0.68
2022-08-29T03:43:12.268Z,0.74
2022-08-29T03:48:18.635Z,0.84
2022-08-29T03:53:25.330Z,0.93
2022-08-29T03:58:31.751Z,0.59
2022-08-29T04:03:38.474Z,0.61
2022-08-29T04:08:44.899Z,0.74
2022-08-29T04:13:52.298Z,0.71
2022-08-29T04:18:58.675Z,0.83
2022-08-29T04:24:06.194Z,0.56
2022-08-29T04:29:12.608Z,0.72
2022-08-29T04:34:20.267Z,0.91
2022-08-29T04:39:26.670Z,0.68
2022-08-29T04:44:34.101Z,0.64
2022-08-29T04:49:40.515Z,0.83
2022-08-29T04:54:47.157Z,0.76
2022-08-29T04:59:53.565Z,0.61
2022-08-29T05:05:00.278Z,0.59
2022-08-29T05:10:06.702Z,0.70
2022-08-29T05:15:14.522Z,0.82
2022-08-29T05:20:20.972Z,0.76
2022-08-29T05:25:28.532Z,0.74
2022-08-29T05:30:35.488Z,0.49
2022-08-29T05:35:40.848Z,0.81
2022-08-29T05:40:46.759Z,0.90
2022-08-29T05:45:53.756Z,0.64
2022-08-29T05:51:00.113Z,0.70
2022-08-29T05:56:06.784Z,0.57
2022-08-29T06:01:13.174Z,0.53
2022-08-29T06:06:19.829Z,0.62
2022-08-29T06:11:25.808Z,0.57
2022-08-29T06:16:32.609Z,0.67
2022-08-29T06:21:39.034Z,0.77
2022-08-29T06:26:45.706Z,0.68
2022-08-29T06:31:52.138Z,0.70
2022-08-29T06:36:58.855Z,0.63
2022-08-29T06:42:07.827Z,0.61
2022-08-29T06:47:14.572Z,0.91
2022-08-29T06:52:21.020Z,0.84
2022-08-29T06:57:27.686Z,0.66
2022-08-29T07:02:33.972Z,0.75
2022-08-29T07:07:41.937Z,0.63
2022-08-29T07:12:48.376Z,0.68
2022-08-29T07:17:59.850Z,0.69
2022-08-29T07:23:01.608Z,0.69
2022-08-29T07:28:08.629Z,0.52
2022-08-29T07:33:15.589Z,0.57
2022-08-29T07:38:21.689Z,0.72
2022-08-29T07:43:28.436Z,0.83
2022-08-29T07:48:34.791Z,0.61
2022-08-29T07:53:41.196Z,0.49
2022-08-29T07:58:48.039Z,0.80
2022-08-29T08:03:54.471Z,0.85
2022-08-29T08:09:01.379Z,0.73
2022-08-29T08:14:08.104Z,0.68
2022-08-29T08:19:15.624Z,0.82
2022-08-29T08:24:21.935Z,0.70
2022-08-29T08:29:28.712Z,0.80
2022-08-29T08:34:35.913Z,0.81
2022-08-29T08:39:41.451Z,0.80
2022-08-29T08:44:47.888Z,0.99
2022-08-29T08:49:54.595Z,0.84
2022-08-29T08:55:01.024Z,0.93
2022-08-29T09:00:07.881Z,0.79
2022-08-29T09:05:14.287Z,1.27
2022-08-29T09:10:21.053Z,0.74
2022-08-29T09:15:27.515Z,0.63
2022-08-29T09:20:34.337Z,0.80
2022-08-29T09:25:40.845Z,0.82
2022-08-29T09:30:47.534Z,0.99
2022-08-29T09:35:54.156Z,0.83
2022-08-29T09:41:00.860Z,0.93
2022-08-29T09:46:07.436Z,0.74
2022-08-29T09:51:13.653Z,0.89
2022-08-29T09:56:20.207Z,0.85
2022-08-29T10:01:28.536Z,0.95
2022-08-29T10:06:32.806Z,0.94
2022-08-29T10:11:39.484Z,1.17
2022-08-29T10:16:46.199Z,1.02
2022-08-29T10:21:53.505Z,0.81
2022-08-29T10:27:04.153Z,0.96
2022-08-29T10:32:00.805Z,0.83
2022-08-29T10:37:07.125Z,0.82
2022-08-29T10:42:14.181Z,0.78
2022-08-29T10:47:20.615Z,0.60
2022-08-29T10:52:27.299Z,0.72
2022-08-29T10:57:33.679Z,0.67
2022-08-29T11:02:41.448Z,0.82
2022-08-29T11:07:47.914Z,0.91
2022-08-29T11:13:02.099Z,1.03
2022-08-29T11:17:58.366Z,0.82
2022-08-29T11:23:05.251Z,0.83
2022-08-29T11:28:11.296Z,1.04
2022-08-29T11:33:18.042Z,1.14
2022-08-29T11:38:24.485Z,0.83
2022-08-29T11:43:31.468Z,0.99
2022-08-29T11:48:37.881Z,0.95
2022-08-29T11:53:45.033Z,0.73
2022-08-29T11:58:51.451Z,0.57
2022-08-29T12:03:59.112Z,0.84
2022-08-29T12:09:08.080Z,0.80
2022-08-29T12:14:12.893Z,0.76
2022-08-29T12:19:19.351Z,0.97
2022-08-29T12:24:26.846Z,1.17
2022-08-29T12:29:44.366Z,0.82
2022-08-29T12:34:40.582Z,0.97
2022-08-29T12:39:46.585Z,0.74
2022-08-29T12:50:00.482Z,0.74
2022-08-29T12:55:07.172Z,0.72
2022-08-29T13:00:13.662Z,0.75
2022-08-29T13:05:21.358Z,0.90
2022-08-29T13:10:26.665Z,0.54
2022-08-29T13:15:33.844Z,0.74
2022-08-29T13:20:41.470Z,1.12
2022-08-29T13:25:48.118Z,1.06
2022-08-29T13:30:55.157Z,0.96
2022-08-29T13:36:02.109Z,0.78
2022-08-29T13:41:08.526Z,0.91
2022-08-29T13:46:15.741Z,0.84
2022-08-29T13:51:22.115Z,0.85
2022-08-29T13:56:32.282Z,0.87
2022-08-29T14:06:42.009Z,0.62
2022-08-29T14:11:48.503Z,0.91
2022-08-29T14:16:56.068Z,0.71
2022-08-29T14:22:02.591Z,0.86
2022-08-29T14:27:11.884Z,0.89
2022-08-29T14:32:18.413Z,1.45
2022-08-29T14:37:25.908Z,1.30
2022-08-29T14:42:32.483Z,2.03
2022-08-29T14:47:40.031Z,2.13
2022-08-29T14:52:46.457Z,1.77
2022-08-29T14:57:53.158Z,2.10
2022-08-29T15:02:59.679Z,1.83
2022-08-29T15:08:06.943Z,1.47
2022-08-29T15:13:13.200Z,1.47
2022-08-29T15:18:47.983Z,1.30
2022-08-29T15:23:26.155Z,1.28
2022-08-29T15:28:33.198Z,1.16
2022-08-29T15:33:39.874Z,1.24
2022-08-29T15:38:47.399Z,1.00
2022-08-29T15:43:53.793Z,1.02
2022-08-29T15:49:01.193Z,1.21
2022-08-29T15:54:07.723Z,0.96
2022-08-29T15:59:15.174Z,0.86
2022-08-29T16:04:21.698Z,1.08
2022-08-29T16:09:28.456Z,0.95
2022-08-29T16:14:59.766Z,0.96
2022-08-29T16:19:41.333Z,0.66
2022-08-29T16:24:47.813Z,0.90
2022-08-29T16:29:55.176Z,0.75
2022-08-29T16:35:02.090Z,0.80
2022-08-29T16:40:20.831Z,0.88
2022-08-29T16:45:16.196Z,0.81
2022-08-29T16:50:23.432Z,0.95
2022-08-29T16:55:29.822Z,0.62
2022-08-29T17:00:37.432Z,0.62
2022-08-29T17:05:43.797Z,1.09
2022-08-29T17:10:50.534Z,0.68
2022-08-29T17:15:57.010Z,0.80
2022-08-29T17:21:03.782Z,0.47
2022-08-29T17:26:10.188Z,0.78
2022-08-29T17:31:23.060Z,0.75
2022-08-29T17:36:19.402Z,0.57
2022-08-29T17:41:26.257Z,0.68
2022-08-29T17:46:33.347Z,0.31
2022-08-29T17:51:41.660Z,0.60
2022-08-29T17:56:48.053Z,0.50
2022-08-29T18:01:57.574Z,0.42
2022-08-29T18:07:04.924Z,0.42
2022-08-29T18:12:12.512Z,0.41
2022-08-29T18:17:18.976Z,0.43
2022-08-29T18:20:50.463Z,0.46
2022-08-29T18:25:47.166Z,0.55
2022-08-29T18:30:53.669Z,0.64
2022-08-29T18:36:01.250Z,0.39
2022-08-29T18:41:08.771Z,0.46
2022-08-29T18:46:16.723Z,0.55
2022-08-29T18:51:23.821Z,0.36
2022-08-29T18:56:31.742Z,0.27
2022-08-29T19:01:38.250Z,0.41
2022-08-29T19:06:45.774Z,0.32
2022-08-29T19:11:52.271Z,0.24
2022-08-29T19:16:59.807Z,0.30
2022-08-29T19:22:06.285Z,0.23
2022-08-29T19:27:32.714Z,0.21
2022-08-29T19:32:19.206Z,0.29
2022-08-29T19:37:25.933Z,0.54
2022-08-29T19:42:32.941Z,0.46
2022-08-29T19:47:39.840Z,0.23
2022-08-29T19:52:47.561Z,0.29
2022-08-29T19:57:54.553Z,0.44
2022-08-29T20:03:01.036Z,0.30
2022-08-29T20:08:07.730Z,0.16
2022-08-29T20:13:14.504Z,0.27
2022-08-29T20:18:20.495Z,0.23
2022-08-29T20:23:29.862Z,0.20
2022-08-29T20:28:36.538Z,0.25
2022-08-29T20:33:43.039Z,0.22
2022-08-29T20:38:49.885Z,0.38
2022-08-29T20:43:56.929Z,0.24
2022-08-29T20:49:03.726Z,0.26
2022-08-29T20:54:10.315Z,0.30
2022-08-29T20:59:17.114Z,0.42
2022-08-29T21:04:24.116Z,0.24
2022-08-29T21:09:31.110Z,0.29
2022-08-29T21:14:37.596Z,0.21
2022-08-29T21:19:45.112Z,0.26
2022-08-29T21:24:51.595Z,0.18
2022-08-29T21:29:58.394Z,0.38
2022-08-29T21:35:04.910Z,0.23
2022-08-29T21:40:11.906Z,0.33
2022-08-29T21:45:18.570Z,0.34
2022-08-29T21:50:25.479Z,0.32
2022-08-29T21:55:31.867Z,0.15
2022-08-29T22:00:38.650Z,0.26
2022-08-29T22:05:45.033Z,0.26
2022-08-29T22:10:51.931Z,0.16
2022-08-29T22:15:58.500Z,0.20
2022-08-29T22:21:05.212Z,0.36
2022-08-29T22:26:11.711Z,0.30
2022-08-29T22:31:18.493Z,0.38
2022-08-29T22:36:24.991Z,0.29
2022-08-29T22:41:31.781Z,0.36
2022-08-29T22:46:38.319Z,0.38
2022-08-29T22:51:45.167Z,0.22
2022-08-29T22:56:54.409Z,0.28
2022-08-29T23:01:58.195Z,0.28
2022-08-29T23:07:05.060Z,0.24
2022-08-29T23:12:11.851Z,0.21
2022-08-29T23:17:18.329Z,0.20
2022-08-29T23:22:25.836Z,0.37
2022-08-29T23:27:32.326Z,0.31
2022-08-29T23:32:39.835Z,0.53
2022-08-29T23:37:46.321Z,0.23
2022-08-29T23:42:53.115Z,0.37
2022-08-29T23:47:59.522Z,0.28
2022-08-29T23:53:06.503Z,0.36
2022-08-29T23:58:12.990Z,0.42
